createdAt,value
2023-01-23T00:01:03.786Z,31.53
2023-01-23T00:03:34.494Z,39.33
2023-01-23T00:06:12.910Z,35.20
2023-01-23T00:08:44.106Z,35.20
2023-01-23T00:11:21.716Z,38.10
2023-01-23T00:13:58.374Z,36.30
2023-01-23T00:16:40.957Z,40.00
2023-01-23T00:19:11.184Z,33.47
2023-01-23T00:21:45.887Z,31.90
2023-01-23T00:24:17.618Z,32.07
2023-01-23T00:26:54.144Z,37.60
2023-01-23T00:29:22.620Z,34.40
2023-01-23T00:31:57.956Z,33.47
2023-01-23T00:34:26.403Z,39.53
2023-01-23T00:37:00.876Z,37.17
2023-01-23T00:39:30.919Z,39.60
2023-01-23T00:42:06.311Z,35.43
2023-01-23T00:44:34.905Z,35.87
2023-01-23T00:47:09.918Z,39.00
2023-01-23T00:49:38.639Z,36.10
2023-01-23T00:52:13.842Z,38.03
2023-01-23T00:54:43.884Z,35.93
2023-01-23T00:57:18.972Z,39.60
2023-01-23T00:59:47.551Z,38.07
2023-01-23T01:02:23.038Z,37.07
2023-01-23T01:04:51.778Z,46.90
2023-01-23T01:07:26.991Z,42.43
2023-01-23T01:09:57.261Z,36.53
2023-01-23T01:12:31.867Z,42.47
2023-01-23T01:15:07.248Z,45.80
2023-01-23T01:17:42.901Z,37.73
2023-01-23T01:20:13.279Z,37.63
2023-01-23T01:22:48.834Z,48.17
2023-01-23T01:25:21.135Z,42.67
2023-01-23T01:27:56.075Z,42.87
2023-01-23T01:30:25.895Z,40.80
2023-01-23T01:33:03.025Z,46.50
2023-01-23T01:35:31.824Z,46.90
2023-01-23T01:38:06.927Z,46.63
2023-01-23T01:40:38.101Z,48.50
2023-01-23T01:43:15.042Z,47.83
2023-01-23T01:46:23.235Z,48.83
2023-01-23T01:49:08.149Z,45.97
2023-01-23T01:51:41.440Z,45.73
2023-01-23T01:54:23.041Z,45.67
2023-01-23T01:57:03.079Z,52.33
2023-01-23T01:59:36.276Z,49.00
2023-01-23T02:02:17.133Z,55.80
2023-01-23T02:04:49.035Z,49.80
2023-01-23T02:07:29.875Z,56.47
2023-01-23T02:09:58.697Z,55.40
2023-01-23T02:12:36.031Z,55.60
2023-01-23T02:15:12.957Z,56.07
2023-01-23T02:17:49.772Z,66.67
2023-01-23T02:20:29.956Z,62.60
2023-01-23T02:23:12.945Z,74.73
2023-01-23T02:25:53.542Z,82.17
2023-01-23T02:28:29.055Z,96.40
2023-01-23T02:30:57.791Z,71.27
2023-01-23T02:33:52.896Z,107.57
2023-01-23T02:36:23.730Z,108.77
2023-01-23T02:39:05.161Z,136.43
2023-01-23T02:41:38.227Z,146.57
2023-01-23T02:44:22.420Z,127.80
2023-01-23T02:46:51.559Z,143.53
2023-01-23T02:49:26.914Z,133.60
2023-01-23T02:51:56.761Z,174.10
2023-01-23T02:54:25.717Z,137.67
2023-01-23T02:57:04.101Z,197.10
2023-01-23T02:59:56.061Z,213.40
2023-01-23T03:02:25.609Z,187.43
2023-01-23T03:05:00.937Z,186.47
2023-01-23T03:07:29.323Z,199.83
2023-01-23T03:10:04.113Z,244.23
2023-01-23T03:12:33.824Z,223.03
2023-01-23T03:15:15.064Z,276.97
2023-01-23T03:17:43.436Z,259.50
2023-01-23T03:20:20.207Z,268.97
2023-01-23T03:22:48.874Z,287.67
2023-01-23T03:25:27.032Z,335.27
2023-01-23T03:27:58.988Z,257.17
2023-01-23T03:30:33.012Z,390.77
2023-01-23T03:33:01.329Z,253.50
2023-01-23T03:35:35.992Z,279.10
2023-01-23T03:38:04.566Z,369.80
2023-01-23T03:40:56.989Z,383.37
2023-01-23T03:43:27.308Z,191.07
2023-01-23T03:46:01.986Z,325.90
2023-01-23T03:48:30.574Z,458.40
2023-01-23T03:51:06.196Z,255.40
2023-01-23T03:53:35.270Z,324.50
2023-01-23T03:56:09.946Z,495.53
2023-01-23T03:58:39.906Z,502.73
2023-01-23T04:01:16.273Z,449.30
2023-01-23T04:03:44.852Z,511.80
2023-01-23T04:06:20.197Z,464.20
2023-01-23T04:08:48.924Z,443.73
2023-01-23T04:11:24.044Z,516.00
2023-01-23T04:14:00.825Z,458.13
2023-01-23T04:16:36.081Z,289.30
2023-01-23T04:19:05.015Z,526.47
2023-01-23T04:21:40.382Z,488.47
2023-01-23T04:24:09.044Z,413.80
2023-01-23T04:26:45.175Z,479.00
2023-01-23T04:29:15.059Z,370.23
2023-01-23T04:31:50.106Z,459.80
2023-01-23T04:34:18.698Z,620.83
2023-01-23T04:36:53.082Z,409.00
2023-01-23T04:39:21.546Z,214.53
2023-01-23T04:41:56.304Z,204.00
2023-01-23T04:44:27.658Z,167.77
2023-01-23T04:47:02.196Z,307.33
2023-01-23T04:49:30.819Z,220.90
2023-01-23T04:51:59.241Z,227.97
2023-01-23T04:54:34.014Z,155.40
2023-01-23T04:57:02.489Z,211.97
2023-01-23T04:59:39.068Z,232.83
2023-01-23T05:02:07.385Z,241.37
2023-01-23T05:04:42.023Z,200.37
2023-01-23T05:07:12.325Z,171.93
2023-01-23T05:09:48.161Z,233.93
2023-01-23T05:12:16.908Z,161.80
2023-01-23T05:14:53.100Z,240.37
2023-01-23T05:17:21.690Z,209.10
2023-01-23T05:19:57.135Z,228.23
2023-01-23T05:22:25.480Z,197.60
2023-01-23T05:25:00.113Z,216.80
2023-01-23T05:27:28.521Z,177.40
2023-01-23T05:30:05.024Z,199.37
2023-01-23T05:32:34.025Z,174.23
2023-01-23T05:35:09.115Z,150.47
2023-01-23T05:37:38.440Z,141.40
2023-01-23T05:40:16.209Z,149.13
2023-01-23T05:42:46.193Z,134.30
2023-01-23T05:45:23.229Z,104.63
2023-01-23T05:47:52.059Z,180.53
2023-01-23T05:50:29.061Z,154.67
2023-01-23T05:52:57.472Z,155.60
2023-01-23T05:55:32.061Z,114.53
2023-01-23T05:58:00.777Z,170.50
2023-01-23T06:00:37.134Z,154.93
2023-01-23T06:03:06.936Z,143.43
2023-01-23T06:05:43.079Z,148.13
2023-01-23T06:08:12.639Z,104.97
2023-01-23T06:10:48.075Z,117.97
2023-01-23T06:13:16.607Z,110.33
2023-01-23T06:16:00.147Z,111.57
2023-01-23T06:18:28.622Z,100.63
2023-01-23T06:21:08.273Z,96.67
2023-01-23T06:23:36.807Z,101.47
2023-01-23T06:26:12.258Z,113.10
2023-01-23T06:28:41.826Z,110.10
2023-01-23T06:31:18.363Z,113.67
2023-01-23T06:33:51.415Z,101.17
2023-01-23T06:36:26.284Z,105.47
2023-01-23T06:38:55.126Z,89.53
2023-01-23T06:41:24.754Z,83.10
2023-01-23T06:44:02.324Z,90.30
2023-01-23T06:46:32.504Z,78.67
2023-01-23T06:49:07.315Z,94.57
2023-01-23T06:51:36.151Z,92.33
2023-01-23T06:54:11.466Z,82.23
2023-01-23T06:56:40.020Z,88.27
2023-01-23T06:59:15.144Z,79.13
2023-01-23T07:01:45.308Z,79.57
2023-01-23T07:04:20.193Z,79.87
2023-01-23T07:06:48.724Z,57.53
2023-01-23T07:09:24.149Z,74.10
2023-01-23T07:11:53.130Z,76.20
2023-01-23T07:14:28.228Z,76.03
2023-01-23T07:17:05.057Z,78.13
2023-01-23T07:19:40.190Z,69.30
2023-01-23T07:22:08.668Z,58.97
2023-01-23T07:24:45.212Z,69.30
2023-01-23T07:27:13.834Z,66.60
2023-01-23T07:29:49.173Z,67.70
2023-01-23T07:32:19.179Z,65.03
2023-01-23T07:34:54.146Z,72.63
2023-01-23T07:37:23.165Z,67.23
2023-01-23T07:39:58.089Z,67.87
2023-01-23T07:42:26.993Z,66.73
2023-01-23T07:45:02.327Z,70.30
2023-01-23T07:47:32.415Z,74.23
2023-01-23T07:50:07.333Z,69.73
2023-01-23T07:52:36.127Z,64.20
2023-01-23T07:55:12.229Z,60.23
2023-01-23T07:57:40.849Z,60.47
2023-01-23T08:00:19.410Z,61.77
2023-01-23T08:02:49.379Z,68.37
2023-01-23T08:05:24.334Z,66.53
2023-01-23T08:08:07.375Z,59.07
2023-01-23T08:10:47.168Z,62.17
2023-01-23T08:13:22.330Z,60.67
2023-01-23T08:15:57.543Z,64.40
2023-01-23T08:18:40.238Z,66.20
2023-01-23T08:21:08.705Z,64.80
2023-01-23T08:23:43.364Z,60.70
2023-01-23T08:26:14.570Z,58.80
2023-01-23T08:28:50.280Z,62.33
2023-01-23T08:31:18.739Z,62.23
2023-01-23T08:33:55.379Z,63.33
2023-01-23T08:36:24.201Z,57.67
2023-01-23T08:38:59.205Z,58.07
2023-01-23T08:41:27.775Z,61.23
2023-01-23T08:44:04.262Z,59.83
2023-01-23T08:46:32.718Z,57.37
2023-01-23T08:49:11.504Z,59.13
2023-01-23T08:51:40.273Z,56.70
2023-01-23T08:54:15.430Z,58.70
2023-01-23T08:56:44.142Z,57.50
2023-01-23T08:59:19.310Z,52.30
2023-01-23T09:01:48.164Z,53.70
2023-01-23T09:04:25.388Z,58.27
2023-01-23T09:06:54.061Z,53.33
2023-01-23T09:09:29.172Z,60.90
2023-01-23T09:11:57.767Z,58.53
2023-01-23T09:14:39.237Z,60.60
2023-01-23T09:17:14.436Z,62.20
2023-01-23T09:19:51.444Z,57.03
2023-01-23T09:22:20.273Z,59.13
2023-01-23T09:24:55.379Z,57.33
2023-01-23T09:27:26.952Z,59.30
2023-01-23T09:30:02.472Z,53.97
2023-01-23T09:32:30.735Z,51.13
2023-01-23T09:35:07.468Z,52.03
2023-01-23T09:37:51.203Z,55.73
2023-01-23T09:40:29.302Z,55.00
2023-01-23T09:43:01.546Z,55.43
2023-01-23T09:45:38.436Z,52.63
2023-01-23T09:48:17.808Z,49.80
2023-01-23T09:51:02.613Z,52.23
2023-01-23T09:53:37.362Z,48.80
2023-01-23T09:56:22.247Z,49.27
2023-01-23T09:59:09.519Z,51.00
2023-01-23T10:01:45.269Z,47.57
2023-01-23T10:04:17.102Z,49.60
2023-01-23T10:07:18.284Z,48.40
2023-01-23T10:10:11.323Z,46.90
2023-01-23T10:12:51.433Z,47.53
2023-01-23T10:15:45.300Z,47.57
2023-01-23T10:18:26.793Z,50.10
2023-01-23T10:21:13.290Z,45.33
2023-01-23T10:23:59.084Z,53.67
2023-01-23T10:26:39.383Z,53.30
2023-01-23T10:29:15.974Z,51.17
2023-01-23T10:31:55.435Z,51.57
2023-01-23T10:34:34.490Z,51.10
2023-01-23T10:37:21.494Z,48.53
2023-01-23T10:39:56.880Z,45.40
2023-01-23T10:42:35.541Z,50.40
2023-01-23T10:45:04.028Z,50.87
2023-01-23T10:47:43.496Z,50.80
2023-01-23T10:50:13.486Z,51.10
2023-01-23T10:52:50.332Z,48.77
2023-01-23T10:55:32.609Z,50.63
2023-01-23T10:58:10.379Z,50.37
2023-01-23T11:00:46.009Z,51.27
2023-01-23T11:03:36.413Z,56.37
2023-01-23T11:06:09.239Z,50.73
2023-01-23T11:08:46.489Z,54.87
2023-01-23T11:11:26.946Z,50.63
2023-01-23T11:14:15.378Z,42.37
2023-01-23T11:16:50.769Z,46.37
2023-01-23T11:19:29.378Z,49.93
2023-01-23T11:22:00.273Z,50.00
2023-01-23T11:24:44.497Z,49.07
2023-01-23T11:27:26.681Z,48.93
2023-01-23T11:30:32.626Z,46.00
2023-01-23T11:33:05.763Z,43.30
2023-01-23T11:35:58.627Z,45.47
2023-01-23T11:38:31.213Z,43.87
2023-01-23T11:41:06.617Z,42.90
2023-01-23T11:43:37.231Z,44.57
2023-01-23T11:46:32.429Z,46.13
2023-01-23T11:49:16.782Z,43.47
2023-01-23T11:52:01.378Z,41.57
2023-01-23T11:54:59.674Z,45.13
2023-01-23T11:57:46.553Z,45.20
2023-01-23T12:00:33.411Z,42.40
2023-01-23T12:03:42.455Z,42.73
2023-01-23T12:06:24.641Z,39.40
2023-01-23T12:09:07.548Z,41.80
2023-01-23T12:11:46.366Z,43.07
2023-01-23T12:14:28.527Z,39.87
2023-01-23T12:17:40.611Z,40.63
2023-01-23T12:20:33.589Z,39.43
2023-01-23T12:23:17.572Z,38.13
2023-01-23T12:26:00.592Z,40.47
2023-01-23T12:28:46.876Z,36.83
2023-01-23T12:31:36.557Z,39.70
2023-01-23T12:34:29.270Z,39.30
2023-01-23T12:37:30.709Z,38.53
2023-01-23T12:40:12.428Z,37.40
2023-01-23T12:42:55.444Z,39.53
2023-01-23T12:45:26.299Z,38.80
2023-01-23T12:48:10.571Z,36.63
2023-01-23T12:50:46.349Z,35.10
2023-01-23T12:53:23.396Z,35.90
2023-01-23T12:55:59.619Z,40.63
2023-01-23T12:58:37.413Z,40.00
2023-01-23T13:01:22.264Z,36.17
2023-01-23T13:04:11.823Z,37.40
2023-01-23T13:10:04.194Z,34.80
2023-01-23T13:12:32.750Z,31.07
2023-01-23T13:15:40.078Z,35.57
2023-01-23T13:18:30.246Z,34.77
2023-01-23T13:21:18.440Z,35.07
2023-01-23T13:23:53.372Z,37.93
2023-01-23T13:26:38.375Z,35.43
2023-01-23T13:29:07.614Z,36.87
2023-01-23T13:31:49.365Z,41.57
2023-01-23T13:34:38.652Z,37.73
2023-01-23T13:37:57.251Z,38.80
2023-01-23T13:40:26.694Z,34.60
2023-01-23T13:43:03.232Z,36.10
2023-01-23T13:45:36.623Z,37.67
2023-01-23T14:25:30.378Z,26.13
2023-01-23T14:28:35.426Z,21.97
2023-01-23T14:31:06.939Z,27.27
2023-01-23T14:33:50.835Z,25.80
2023-01-23T14:36:21.211Z,26.37
2023-01-23T14:38:57.262Z,26.87
2023-01-23T14:41:31.705Z,24.10
2023-01-23T14:44:08.311Z,25.27
2023-01-23T14:46:40.171Z,22.77
2023-01-23T14:49:17.303Z,23.13
2023-01-23T14:51:59.667Z,22.13
2023-01-23T14:54:36.850Z,23.27
2023-01-23T14:57:10.272Z,23.00
2023-01-23T14:59:48.461Z,21.00
2023-01-23T15:02:33.742Z,21.20
2023-01-23T15:05:16.455Z,22.50
2023-01-23T15:07:54.362Z,20.67
2023-01-23T15:10:38.366Z,21.90
2023-01-23T15:13:10.178Z,22.07
2023-01-23T15:15:45.325Z,22.73
2023-01-23T15:18:23.615Z,20.93
2023-01-23T15:21:02.305Z,22.87
2023-01-23T15:23:33.015Z,23.17
2023-01-23T15:26:20.309Z,23.17
2023-01-23T15:28:52.068Z,20.40
2023-01-23T15:31:34.582Z,22.93
2023-01-23T15:34:21.573Z,21.03
2023-01-23T15:36:58.361Z,21.97
2023-01-23T15:39:29.588Z,21.37
2023-01-23T15:42:07.524Z,20.97
2023-01-23T15:44:36.030Z,21.03
2023-01-23T15:47:11.508Z,21.17
2023-01-23T15:49:41.667Z,20.47
2023-01-23T15:52:27.376Z,21.63
2023-01-23T15:54:59.648Z,19.27
2023-01-23T15:57:34.386Z,16.57
2023-01-23T16:00:03.906Z,17.50
2023-01-23T16:02:47.267Z,16.87
2023-01-23T16:05:26.375Z,16.00
2023-01-23T16:08:03.543Z,15.90
2023-01-23T16:10:41.597Z,15.63
2023-01-23T16:13:21.347Z,16.43
2023-01-23T16:15:49.945Z,16.53
2023-01-23T16:18:25.367Z,17.53
2023-01-23T16:20:55.466Z,20.10
2023-01-23T16:23:46.176Z,18.50
2023-01-23T16:26:21.541Z,19.93
2023-01-23T16:29:08.677Z,20.10
2023-01-23T16:31:41.948Z,20.37
2023-01-23T16:34:17.387Z,18.90
2023-01-23T16:36:46.958Z,19.33
2023-01-23T16:39:26.371Z,18.37
2023-01-23T16:41:55.940Z,18.63
2023-01-23T16:44:31.366Z,19.70
2023-01-23T16:46:59.526Z,19.47
2023-01-23T16:49:46.810Z,19.50
2023-01-23T16:52:21.794Z,21.17
2023-01-23T16:54:59.395Z,19.97
2023-01-23T16:57:27.730Z,19.53
2023-01-23T17:00:02.448Z,19.03
2023-01-23T17:02:32.827Z,19.43
2023-01-23T17:05:07.535Z,19.73
2023-01-23T17:07:57.391Z,16.13
2023-01-23T17:10:37.853Z,19.60
2023-01-23T17:13:21.449Z,18.83
2023-01-23T17:15:52.024Z,19.77
2023-01-23T17:18:30.432Z,18.17
2023-01-23T17:20:59.340Z,18.90
2023-01-23T17:23:35.447Z,19.17
2023-01-23T17:26:03.730Z,18.77
2023-01-23T17:28:38.407Z,18.47
2023-01-23T17:31:07.005Z,18.33
2023-01-23T17:33:41.410Z,19.37
2023-01-23T17:36:09.928Z,19.93
2023-01-23T17:38:48.430Z,17.47
2023-01-23T17:41:17.916Z,17.93
2023-01-23T17:43:54.407Z,18.60
2023-01-23T17:46:26.347Z,19.50
2023-01-23T17:49:02.417Z,18.70
2023-01-23T17:51:30.544Z,19.47
2023-01-23T17:54:06.446Z,17.80
2023-01-23T17:56:34.598Z,18.27
2023-01-23T17:59:09.442Z,17.43
2023-01-23T18:01:37.672Z,18.00
2023-01-23T18:04:22.490Z,17.17
2023-01-23T18:06:51.376Z,16.80
2023-01-23T18:09:36.774Z,17.77
2023-01-23T18:12:06.306Z,19.93
2023-01-23T18:14:52.468Z,16.90
2023-01-23T18:17:31.050Z,16.90
2023-01-23T18:20:06.608Z,17.83
2023-01-23T18:22:35.514Z,16.87
2023-01-23T18:25:12.456Z,16.53
2023-01-23T18:27:43.615Z,16.77
2023-01-23T18:30:34.472Z,16.77
2023-01-23T18:33:17.872Z,19.57
2023-01-23T18:36:07.524Z,20.30
2023-01-23T18:38:44.926Z,21.90
2023-01-23T18:41:28.503Z,21.77
2023-01-23T18:44:03.868Z,21.87
2023-01-23T18:46:39.489Z,20.67
2023-01-23T18:49:27.706Z,21.87
2023-01-23T18:52:14.527Z,23.30
2023-01-23T18:54:51.249Z,23.00
2023-01-23T18:57:40.920Z,21.93
2023-01-23T19:00:16.774Z,20.07
2023-01-23T19:02:56.499Z,21.00
2023-01-23T19:05:29.797Z,21.00
2023-01-23T19:08:12.493Z,21.97
2023-01-23T19:10:50.000Z,20.87
2023-01-23T19:13:29.496Z,21.43
2023-01-23T19:16:06.231Z,20.47
2023-01-23T19:18:53.502Z,20.53
2023-01-23T19:21:23.692Z,21.07
2023-01-23T19:24:06.610Z,23.97
2023-01-23T19:26:39.298Z,22.07
2023-01-23T19:29:22.692Z,23.13
2023-01-23T19:32:05.268Z,22.90
2023-01-23T19:34:41.515Z,22.67
2023-01-23T19:37:09.787Z,23.40
2023-01-23T19:39:45.543Z,22.80
2023-01-23T19:42:16.226Z,24.73
2023-01-23T19:44:52.522Z,26.27
2023-01-23T19:47:20.659Z,24.60
2023-01-23T19:49:55.527Z,22.93
2023-01-23T19:52:23.820Z,24.87
2023-01-23T19:54:58.543Z,28.67
2023-01-23T19:57:26.705Z,26.53
2023-01-23T20:00:02.537Z,24.27
2023-01-23T20:02:30.703Z,26.57
2023-01-23T20:05:05.527Z,25.77
2023-01-23T20:07:33.644Z,26.03
2023-01-23T20:10:15.544Z,26.80
2023-01-23T20:12:45.131Z,25.30
2023-01-23T20:15:22.904Z,27.00
2023-01-23T20:17:52.577Z,26.17
2023-01-23T20:20:27.557Z,26.33
2023-01-23T20:22:55.680Z,26.80
2023-01-23T20:25:30.572Z,25.07
2023-01-23T20:27:58.687Z,25.47
2023-01-23T20:30:34.902Z,26.83
2023-01-23T20:33:05.338Z,25.93
2023-01-23T20:35:40.583Z,27.13
2023-01-23T20:38:08.797Z,26.50
2023-01-23T20:40:44.593Z,25.60
2023-01-23T20:43:12.882Z,24.50
2023-01-23T20:45:55.074Z,24.70
2023-01-23T20:48:23.373Z,23.33
2023-01-23T20:51:00.586Z,23.30
2023-01-23T20:53:31.592Z,23.83
2023-01-23T20:56:09.596Z,22.73
2023-01-23T20:58:57.147Z,23.83
2023-01-23T21:01:34.671Z,23.77
2023-01-23T21:04:02.856Z,23.07
2023-01-23T21:06:37.598Z,24.07
2023-01-23T21:09:25.675Z,25.13
2023-01-23T21:12:00.612Z,25.53
2023-01-23T21:14:28.870Z,24.50
2023-01-23T21:17:04.614Z,26.07
2023-01-23T21:19:33.176Z,25.47
2023-01-23T21:22:07.934Z,25.87
2023-01-23T21:24:37.637Z,24.67
2023-01-23T21:27:13.642Z,24.50
2023-01-23T21:29:41.834Z,24.90
2023-01-23T21:32:17.599Z,22.97
2023-01-23T21:34:45.813Z,23.27
2023-01-23T21:37:21.614Z,22.37
2023-01-23T21:39:49.949Z,22.03
2023-01-23T21:42:24.615Z,21.63
2023-01-23T21:44:55.394Z,20.73
2023-01-23T21:47:31.664Z,21.03
2023-01-23T21:49:59.771Z,22.47
2023-01-23T21:52:35.648Z,21.77
2023-01-23T21:55:03.805Z,22.33
2023-01-23T21:57:38.631Z,21.70
2023-01-23T22:00:33.349Z,22.33
2023-01-23T22:03:09.640Z,22.80
2023-01-23T22:05:37.790Z,21.93
2023-01-23T22:08:12.673Z,22.60
2023-01-23T22:10:53.879Z,23.93
2023-01-23T22:13:28.648Z,23.80
2023-01-23T22:15:58.681Z,23.17
2023-01-23T22:18:34.677Z,22.93
2023-01-23T22:21:05.241Z,21.87
2023-01-23T22:23:40.649Z,23.50
2023-01-23T22:26:11.141Z,24.30
2023-01-23T22:28:45.806Z,23.40
2023-01-23T22:31:15.820Z,24.53
2023-01-23T22:33:53.658Z,25.07
2023-01-23T22:36:22.011Z,24.33
2023-01-23T22:38:59.725Z,24.63
2023-01-23T22:41:28.644Z,24.00
2023-01-23T22:44:05.693Z,23.50
2023-01-23T22:46:34.164Z,24.93
2023-01-23T22:49:10.744Z,25.43
2023-01-23T22:51:38.975Z,26.20
2023-01-23T22:54:13.858Z,26.17
2023-01-23T22:56:44.103Z,26.20
2023-01-23T22:59:18.691Z,26.33
2023-01-23T23:01:46.783Z,26.87
2023-01-23T23:04:22.719Z,28.60
2023-01-23T23:06:50.837Z,27.30
2023-01-23T23:09:31.703Z,27.37
2023-01-23T23:12:06.117Z,27.73
2023-01-23T23:14:40.689Z,27.77
2023-01-23T23:17:08.876Z,28.60
2023-01-23T23:19:44.703Z,26.97
2023-01-23T23:22:12.836Z,26.40
2023-01-23T23:24:47.742Z,26.03
2023-01-23T23:27:16.030Z,27.57
2023-01-23T23:29:50.774Z,29.17
2023-01-23T23:32:19.274Z,26.37
2023-01-23T23:34:55.726Z,27.50
2023-01-23T23:37:23.912Z,27.63
2023-01-23T23:39:58.723Z,29.23
2023-01-23T23:42:26.875Z,30.33
2023-01-23T23:45:01.783Z,29.47
2023-01-23T23:47:30.502Z,29.90
2023-01-23T23:50:06.733Z,30.63
2023-01-23T23:52:36.052Z,31.07
2023-01-23T23:55:11.724Z,32.20
2023-01-23T23:57:46.758Z,31.50
